sensor_id;sensor_type;location;lat;lon;timestamp;P1;durP1;ratioP1;P2;durP2;ratioP2
8171;SDS011;4127;47.908;10.850;2023-06-05T00:01:34;5.17;;;4.07;;
8171;SDS011;4127;47.908;10.850;2023-06-05T00:04:01;4.30;;;3.90;;
8171;SDS011;4127;47.908;10.850;2023-06-05T00:06:30;4.13;;;3.73;;
8171;SDS011;4127;47.908;10.850;2023-06-05T00:08:57;4.43;;;4.03;;
8171;SDS011;4127;47.908;10.850;2023-06-05T00:11:24;4.33;;;3.93;;
8171;SDS011;4127;47.908;10.850;2023-06-05T00:13:51;3.97;;;3.67;;
8171;SDS011;4127;47.908;10.850;2023-06-05T00:16:18;4.07;;;3.70;;
8171;SDS011;4127;47.908;10.850;2023-06-05T00:18:45;4.90;;;3.60;;
8171;SDS011;4127;47.908;10.850;2023-06-05T00:21:12;4.10;;;3.70;;
8171;SDS011;4127;47.908;10.850;2023-06-05T00:23:39;4.33;;;3.93;;
8171;SDS011;4127;47.908;10.850;2023-06-05T00:26:06;4.00;;;3.60;;
8171;SDS011;4127;47.908;10.850;2023-06-05T00:28:33;5.30;;;4.00;;
8171;SDS011;4127;47.908;10.850;2023-06-05T00:31:00;4.33;;;3.93;;
8171;SDS011;4127;47.908;10.850;2023-06-05T00:33:27;4.27;;;3.87;;
8171;SDS011;4127;47.908;10.850;2023-06-05T00:35:56;4.70;;;4.30;;
8171;SDS011;4127;47.908;10.850;2023-06-05T00:38:23;4.40;;;4.00;;
8171;SDS011;4127;47.908;10.850;2023-06-05T00:40:50;5.50;;;4.27;;
8171;SDS011;4127;47.908;10.850;2023-06-05T00:43:17;5.03;;;3.90;;
8171;SDS011;4127;47.908;10.850;2023-06-05T00:45:44;4.93;;;4.30;;
8171;SDS011;4127;47.908;10.850;2023-06-05T00:48:11;5.53;;;4.73;;
8171;SDS011;4127;47.908;10.850;2023-06-05T00:50:38;5.37;;;3.77;;
8171;SDS011;4127;47.908;10.850;2023-06-05T00:53:06;4.63;;;4.23;;
8171;SDS011;4127;47.908;10.850;2023-06-05T00:55:33;4.47;;;4.07;;
8171;SDS011;4127;47.908;10.850;2023-06-05T00:58:00;4.30;;;3.90;;
8171;SDS011;4127;47.908;10.850;2023-06-05T01:00:29;4.40;;;4.00;;
8171;SDS011;4127;47.908;10.850;2023-06-05T01:02:56;4.73;;;4.23;;
8171;SDS011;4127;47.908;10.850;2023-06-05T01:05:24;4.57;;;4.10;;
8171;SDS011;4127;47.908;10.850;2023-06-05T01:07:52;5.03;;;4.53;;
8171;SDS011;4127;47.908;10.850;2023-06-05T01:10:19;4.40;;;4.10;;
8171;SDS011;4127;47.908;10.850;2023-06-05T01:12:50;5.40;;;4.27;;
8171;SDS011;4127;47.908;10.850;2023-06-05T01:15:27;5.37;;;4.87;;
8171;SDS011;4127;47.908;10.850;2023-06-05T01:17:56;5.80;;;4.37;;
8171;SDS011;4127;47.908;10.850;2023-06-05T01:20:32;4.83;;;4.43;;
8171;SDS011;4127;47.908;10.850;2023-06-05T01:23:03;5.00;;;4.60;;
8171;SDS011;4127;47.908;10.850;2023-06-05T01:25:33;4.60;;;4.20;;
8171;SDS011;4127;47.908;10.850;2023-06-05T01:34:40;4.87;;;4.33;;
8171;SDS011;4127;47.908;10.850;2023-06-05T01:37:10;5.30;;;4.80;;
8171;SDS011;4127;47.908;10.850;2023-06-05T01:39:46;4.80;;;4.40;;
8171;SDS011;4127;47.908;10.850;2023-06-05T01:42:14;5.47;;;4.87;;
8171;SDS011;4127;47.908;10.850;2023-06-05T01:44:42;4.70;;;4.30;;
8171;SDS011;4127;47.908;10.850;2023-06-05T01:47:09;4.90;;;4.40;;
8171;SDS011;4127;47.908;10.850;2023-06-05T01:49:37;4.90;;;4.40;;
8171;SDS011;4127;47.908;10.850;2023-06-05T01:52:03;4.90;;;4.50;;
8171;SDS011;4127;47.908;10.850;2023-06-05T01:54:32;6.53;;;5.00;;
8171;SDS011;4127;47.908;10.850;2023-06-05T01:57:00;5.33;;;4.83;;
8171;SDS011;4127;47.908;10.850;2023-06-05T01:59:27;5.33;;;4.83;;
8171;SDS011;4127;47.908;10.850;2023-06-05T02:01:54;5.57;;;5.07;;
8171;SDS011;4127;47.908;10.850;2023-06-05T02:04:21;4.83;;;4.23;;
8171;SDS011;4127;47.908;10.850;2023-06-05T02:06:48;5.03;;;4.60;;
8171;SDS011;4127;47.908;10.850;2023-06-05T02:09:15;10.30;;;5.00;;
8171;SDS011;4127;47.908;10.850;2023-06-05T02:11:42;4.70;;;4.30;;
8171;SDS011;4127;47.908;10.850;2023-06-05T02:14:52;5.23;;;4.73;;
8171;SDS011;4127;47.908;10.850;2023-06-05T02:17:19;5.17;;;4.20;;
8171;SDS011;4127;47.908;10.850;2023-06-05T02:19:47;5.70;;;5.20;;
8171;SDS011;4127;47.908;10.850;2023-06-05T02:22:14;5.00;;;4.50;;
8171;SDS011;4127;47.908;10.850;2023-06-05T02:24:42;4.80;;;4.33;;
8171;SDS011;4127;47.908;10.850;2023-06-05T02:27:10;5.07;;;4.60;;
8171;SDS011;4127;47.908;10.850;2023-06-05T02:29:56;5.23;;;4.73;;
8171;SDS011;4127;47.908;10.850;2023-06-05T04:39:52;6.10;;;5.20;;
8171;SDS011;4127;47.908;10.850;2023-06-05T04:42:18;5.60;;;5.10;;
8171;SDS011;4127;47.908;10.850;2023-06-05T04:44:47;5.30;;;4.77;;
8171;SDS011;4127;47.908;10.850;2023-06-05T04:47:22;5.77;;;5.17;;
8171;SDS011;4127;47.908;10.850;2023-06-05T04:49:49;5.20;;;4.80;;
8171;SDS011;4127;47.908;10.850;2023-06-05T04:52:18;5.40;;;4.90;;
8171;SDS011;4127;47.908;10.850;2023-06-05T04:54:47;5.30;;;4.83;;
8171;SDS011;4127;47.908;10.850;2023-06-05T04:57:13;5.70;;;5.20;;
8171;SDS011;4127;47.908;10.850;2023-06-05T04:59:43;5.77;;;5.27;;
8171;SDS011;4127;47.908;10.850;2023-06-05T05:02:10;5.70;;;5.20;;
8171;SDS011;4127;47.908;10.850;2023-06-05T05:04:38;6.27;;;5.30;;
8171;SDS011;4127;47.908;10.850;2023-06-05T05:07:04;5.60;;;5.10;;
8171;SDS011;4127;47.908;10.850;2023-06-05T05:09:32;6.57;;;5.40;;
8171;SDS011;4127;47.908;10.850;2023-06-05T05:11:59;5.63;;;5.03;;
8171;SDS011;4127;47.908;10.850;2023-06-05T05:14:26;5.70;;;5.20;;
8171;SDS011;4127;47.908;10.850;2023-06-05T05:16:53;5.37;;;4.87;;
8171;SDS011;4127;47.908;10.850;2023-06-05T05:19:23;6.17;;;5.57;;
8171;SDS011;4127;47.908;10.850;2023-06-05T05:21:50;6.60;;;5.40;;
8171;SDS011;4127;47.908;10.850;2023-06-05T05:24:17;5.30;;;4.80;;
8171;SDS011;4127;47.908;10.850;2023-06-05T05:26:44;5.17;;;4.77;;
8171;SDS011;4127;47.908;10.850;2023-06-05T05:29:11;5.50;;;5.00;;
8171;SDS011;4127;47.908;10.850;2023-06-05T05:31:38;5.70;;;5.20;;
8171;SDS011;4127;47.908;10.850;2023-06-05T05:34:05;6.53;;;5.20;;
8171;SDS011;4127;47.908;10.850;2023-06-05T05:36:31;5.70;;;5.17;;
8171;SDS011;4127;47.908;10.850;2023-06-05T05:38:59;5.20;;;4.77;;
8171;SDS011;4127;47.908;10.850;2023-06-05T05:41:26;5.77;;;5.17;;
8171;SDS011;4127;47.908;10.850;2023-06-05T05:43:53;5.50;;;5.00;;
8171;SDS011;4127;47.908;10.850;2023-06-05T05:46:20;6.43;;;5.83;;
8171;SDS011;4127;47.908;10.850;2023-06-05T05:48:47;6.90;;;6.30;;
8171;SDS011;4127;47.908;10.850;2023-06-05T05:51:14;6.40;;;5.80;;
8171;SDS011;4127;47.908;10.850;2023-06-05T05:53:41;8.07;;;7.27;;
8171;SDS011;4127;47.908;10.850;2023-06-05T05:56:08;7.93;;;7.13;;
8171;SDS011;4127;47.908;10.850;2023-06-05T05:58:34;9.03;;;7.73;;
8171;SDS011;4127;47.908;10.850;2023-06-05T06:01:01;8.73;;;7.63;;
8171;SDS011;4127;47.908;10.850;2023-06-05T06:03:28;10.93;;;8.33;;
8171;SDS011;4127;47.908;10.850;2023-06-05T06:05:57;9.23;;;8.27;;
8171;SDS011;4127;47.908;10.850;2023-06-05T06:08:24;9.20;;;7.90;;
8171;SDS011;4127;47.908;10.850;2023-06-05T06:10:53;10.53;;;8.20;;
8171;SDS011;4127;47.908;10.850;2023-06-05T06:13:21;10.33;;;7.60;;
8171;SDS011;4127;47.908;10.850;2023-06-05T06:15:48;8.60;;;7.73;;
8171;SDS011;4127;47.908;10.850;2023-06-05T06:18:15;8.10;;;7.30;;
8171;SDS011;4127;47.908;10.850;2023-06-05T06:20:41;7.47;;;6.50;;
8171;SDS011;4127;47.908;10.850;2023-06-05T06:23:08;9.30;;;7.70;;
8171;SDS011;4127;47.908;10.850;2023-06-05T06:25:35;9.33;;;8.43;;
8171;SDS011;4127;47.908;10.850;2023-06-05T06:28:03;8.20;;;7.40;;
8171;SDS011;4127;47.908;10.850;2023-06-05T06:30:31;8.73;;;7.83;;
8171;SDS011;4127;47.908;10.850;2023-06-05T06:33:00;8.83;;;8.03;;
8171;SDS011;4127;47.908;10.850;2023-06-05T06:35:27;8.53;;;7.50;;
8171;SDS011;4127;47.908;10.850;2023-06-05T06:37:54;9.17;;;7.63;;
8171;SDS011;4127;47.908;10.850;2023-06-05T06:40:21;8.90;;;7.07;;
8171;SDS011;4127;47.908;10.850;2023-06-05T06:42:48;7.57;;;6.87;;
8171;SDS011;4127;47.908;10.850;2023-06-05T06:45:17;8.37;;;7.57;;
8171;SDS011;4127;47.908;10.850;2023-06-05T06:47:44;8.67;;;7.70;;
8171;SDS011;4127;47.908;10.850;2023-06-05T06:50:24;7.77;;;7.07;;
8171;SDS011;4127;47.908;10.850;2023-06-05T06:52:51;7.57;;;6.77;;
8171;SDS011;4127;47.908;10.850;2023-06-05T06:55:18;7.07;;;6.37;;
8171;SDS011;4127;47.908;10.850;2023-06-05T06:57:45;7.77;;;7.07;;
8171;SDS011;4127;47.908;10.850;2023-06-05T07:00:12;8.73;;;7.47;;
8171;SDS011;4127;47.908;10.850;2023-06-05T07:02:39;7.30;;;6.70;;
8171;SDS011;4127;47.908;10.850;2023-06-05T07:05:07;8.67;;;7.83;;
8171;SDS011;4127;47.908;10.850;2023-06-05T07:07:33;8.47;;;6.97;;
8171;SDS011;4127;47.908;10.850;2023-06-05T07:10:00;8.37;;;7.57;;
8171;SDS011;4127;47.908;10.850;2023-06-05T07:12:27;8.47;;;7.67;;
8171;SDS011;4127;47.908;10.850;2023-06-05T07:14:54;7.77;;;6.97;;
8171;SDS011;4127;47.908;10.850;2023-06-05T07:17:20;8.13;;;6.73;;
8171;SDS011;4127;47.908;10.850;2023-06-05T07:19:47;7.63;;;6.93;;
8171;SDS011;4127;47.908;10.850;2023-06-05T07:22:14;8.03;;;7.23;;
8171;SDS011;4127;47.908;10.850;2023-06-05T07:24:41;7.93;;;7.20;;
8171;SDS011;4127;47.908;10.850;2023-06-05T07:27:08;8.17;;;7.10;;
8171;SDS011;4127;47.908;10.850;2023-06-05T07:29:36;7.90;;;7.20;;
8171;SDS011;4127;47.908;10.850;2023-06-05T07:32:03;8.37;;;7.63;;
8171;SDS011;4127;47.908;10.850;2023-06-05T07:34:33;7.87;;;7.07;;
8171;SDS011;4127;47.908;10.850;2023-06-05T07:37:03;7.63;;;7.00;;
8171;SDS011;4127;47.908;10.850;2023-06-05T07:39:30;8.97;;;8.17;;
8171;SDS011;4127;47.908;10.850;2023-06-05T07:41:57;7.90;;;7.20;;
8171;SDS011;4127;47.908;10.850;2023-06-05T07:44:24;11.93;;;10.63;;
8171;SDS011;4127;47.908;10.850;2023-06-05T07:46:51;8.47;;;7.67;;
8171;SDS011;4127;47.908;10.850;2023-06-05T07:49:18;9.10;;;8.17;;
8171;SDS011;4127;47.908;10.850;2023-06-05T07:51:45;9.17;;;7.70;;
8171;SDS011;4127;47.908;10.850;2023-06-05T07:54:16;9.67;;;7.27;;
8171;SDS011;4127;47.908;10.850;2023-06-05T07:56:45;8.67;;;7.80;;
8171;SDS011;4127;47.908;10.850;2023-06-05T07:59:15;8.43;;;7.70;;
8171;SDS011;4127;47.908;10.850;2023-06-05T08:01:43;8.57;;;7.77;;
8171;SDS011;4127;47.908;10.850;2023-06-05T08:04:11;8.07;;;7.20;;
8171;SDS011;4127;47.908;10.850;2023-06-05T08:06:39;7.57;;;6.60;;
8171;SDS011;4127;47.908;10.850;2023-06-05T08:09:06;8.33;;;7.07;;
8171;SDS011;4127;47.908;10.850;2023-06-05T08:11:36;7.23;;;6.53;;
8171;SDS011;4127;47.908;10.850;2023-06-05T08:14:04;8.03;;;6.70;;
8171;SDS011;4127;47.908;10.850;2023-06-05T08:16:32;7.10;;;6.40;;
8171;SDS011;4127;47.908;10.850;2023-06-05T08:18:59;7.80;;;6.73;;
8171;SDS011;4127;47.908;10.850;2023-06-05T08:21:26;6.83;;;6.23;;
8171;SDS011;4127;47.908;10.850;2023-06-05T08:23:53;7.60;;;6.90;;
8171;SDS011;4127;47.908;10.850;2023-06-05T08:26:20;7.43;;;6.73;;
8171;SDS011;4127;47.908;10.850;2023-06-05T08:28:48;7.30;;;6.60;;
8171;SDS011;4127;47.908;10.850;2023-06-05T08:31:15;7.70;;;6.93;;
8171;SDS011;4127;47.908;10.850;2023-06-05T08:33:43;7.37;;;6.63;;
8171;SDS011;4127;47.908;10.850;2023-06-05T08:36:09;6.87;;;6.27;;
8171;SDS011;4127;47.908;10.850;2023-06-05T08:38:36;7.70;;;7.00;;
8171;SDS011;4127;47.908;10.850;2023-06-05T08:41:07;7.30;;;6.70;;
8171;SDS011;4127;47.908;10.850;2023-06-05T08:43:37;7.17;;;6.47;;
8171;SDS011;4127;47.908;10.850;2023-06-05T08:46:05;10.83;;;6.87;;
8171;SDS011;4127;47.908;10.850;2023-06-05T08:48:36;8.30;;;6.93;;
8171;SDS011;4127;47.908;10.850;2023-06-05T08:51:09;8.30;;;7.30;;
8171;SDS011;4127;47.908;10.850;2023-06-05T08:53:39;8.07;;;7.37;;
8171;SDS011;4127;47.908;10.850;2023-06-05T08:56:08;7.10;;;6.50;;
8171;SDS011;4127;47.908;10.850;2023-06-05T08:58:35;7.20;;;6.50;;
8171;SDS011;4127;47.908;10.850;2023-06-05T09:01:03;8.17;;;7.37;;
8171;SDS011;4127;47.908;10.850;2023-06-05T09:03:32;7.47;;;6.77;;
8171;SDS011;4127;47.908;10.850;2023-06-05T09:05:59;7.17;;;6.20;;
8171;SDS011;4127;47.908;10.850;2023-06-05T09:08:29;7.63;;;6.90;;
8171;SDS011;4127;47.908;10.850;2023-06-05T09:13:49;6.60;;;5.90;;
8171;SDS011;4127;47.908;10.850;2023-06-05T09:16:23;7.33;;;6.60;;
8171;SDS011;4127;47.908;10.850;2023-06-05T09:19:11;7.53;;;5.80;;
8171;SDS011;4127;47.908;10.850;2023-06-05T09:21:39;7.17;;;5.43;;
8171;SDS011;4127;47.908;10.850;2023-06-05T09:24:18;5.90;;;5.40;;
8171;SDS011;4127;47.908;10.850;2023-06-05T09:26:59;7.43;;;6.13;;
8171;SDS011;4127;47.908;10.850;2023-06-05T09:29:33;6.30;;;5.70;;
8171;SDS011;4127;47.908;10.850;2023-06-05T09:34:36;6.60;;;6.00;;
8171;SDS011;4127;47.908;10.850;2023-06-05T09:37:05;8.52;;;5.93;;
8171;SDS011;4127;47.908;10.850;2023-06-05T09:39:33;5.68;;;4.80;;
8171;SDS011;4127;47.908;10.850;2023-06-05T09:42:02;6.43;;;5.60;;
8171;SDS011;4127;47.908;10.850;2023-06-05T09:44:29;8.13;;;6.30;;
8171;SDS011;4127;47.908;10.850;2023-06-05T09:47:07;5.97;;;5.50;;
8171;SDS011;4127;47.908;10.850;2023-06-05T09:52:07;5.40;;;4.90;;
8171;SDS011;4127;47.908;10.850;2023-06-05T09:54:39;5.57;;;4.87;;
8171;SDS011;4127;47.908;10.850;2023-06-05T09:57:11;5.83;;;5.23;;
8171;SDS011;4127;47.908;10.850;2023-06-05T09:59:49;6.53;;;5.33;;
8171;SDS011;4127;47.908;10.850;2023-06-05T10:02:21;7.60;;;5.83;;
8171;SDS011;4127;47.908;10.850;2023-06-05T10:04:59;5.90;;;5.40;;
8171;SDS011;4127;47.908;10.850;2023-06-05T10:07:30;5.57;;;4.90;;
8171;SDS011;4127;47.908;10.850;2023-06-05T10:09:57;6.00;;;5.40;;
8171;SDS011;4127;47.908;10.850;2023-06-05T10:12:25;6.90;;;5.43;;
8171;SDS011;4127;47.908;10.850;2023-06-05T10:14:53;7.07;;;5.70;;
8171;SDS011;4127;47.908;10.850;2023-06-05T10:17:23;5.70;;;5.20;;
8171;SDS011;4127;47.908;10.850;2023-06-05T10:19:52;5.73;;;4.97;;
8171;SDS011;4127;47.908;10.850;2023-06-05T10:22:19;5.73;;;5.17;;
8171;SDS011;4127;47.908;10.850;2023-06-05T10:24:48;5.03;;;4.57;;
8171;SDS011;4127;47.908;10.850;2023-06-05T10:33:07;6.30;;;4.90;;
8171;SDS011;4127;47.908;10.850;2023-06-05T10:38:21;6.63;;;4.70;;
8171;SDS011;4127;47.908;10.850;2023-06-05T10:41:00;4.40;;;4.00;;
8171;SDS011;4127;47.908;10.850;2023-06-05T10:43:29;5.87;;;4.60;;
8171;SDS011;4127;47.908;10.850;2023-06-05T10:46:00;6.57;;;4.93;;
8171;SDS011;4127;47.908;10.850;2023-06-05T10:49:05;5.10;;;4.60;;
8171;SDS011;4127;47.908;10.850;2023-06-05T10:57:02;5.13;;;4.63;;
8171;SDS011;4127;47.908;10.850;2023-06-05T10:59:33;4.40;;;4.00;;
8171;SDS011;4127;47.908;10.850;2023-06-05T11:07:19;4.77;;;4.30;;
8171;SDS011;4127;47.908;10.850;2023-06-05T11:15:09;6.60;;;4.38;;
8171;SDS011;4127;47.908;10.850;2023-06-05T11:17:40;5.05;;;4.28;;
8171;SDS011;4127;47.908;10.850;2023-06-05T11:28:05;4.25;;;3.88;;
8171;SDS011;4127;47.908;10.850;2023-06-05T11:33:16;5.55;;;4.50;;
8171;SDS011;4127;47.908;10.850;2023-06-05T11:35:45;4.07;;;3.67;;
8171;SDS011;4127;47.908;10.850;2023-06-05T11:38:18;5.97;;;3.97;;
8171;SDS011;4127;47.908;10.850;2023-06-05T11:40:50;4.32;;;3.92;;
8171;SDS011;4127;47.908;10.850;2023-06-05T11:43:18;4.55;;;4.15;;
8171;SDS011;4127;47.908;10.850;2023-06-05T11:45:49;5.05;;;4.22;;
8171;SDS011;4127;47.908;10.850;2023-06-05T11:48:17;5.57;;;4.00;;
8171;SDS011;4127;47.908;10.850;2023-06-05T11:53:22;5.38;;;4.50;;
8171;SDS011;4127;47.908;10.850;2023-06-05T11:55:51;20.63;;;6.55;;
8171;SDS011;4127;47.908;10.850;2023-06-05T11:58:24;6.43;;;4.13;;
8171;SDS011;4127;47.908;10.850;2023-06-05T12:01:06;4.28;;;3.92;;
8171;SDS011;4127;47.908;10.850;2023-06-05T12:03:39;4.50;;;4.10;;
8171;SDS011;4127;47.908;10.850;2023-06-05T12:06:06;5.57;;;4.30;;
8171;SDS011;4127;47.908;10.850;2023-06-05T12:08:33;4.80;;;3.80;;
8171;SDS011;4127;47.908;10.850;2023-06-05T12:11:02;4.65;;;4.13;;
8171;SDS011;4127;47.908;10.850;2023-06-05T12:16:13;4.30;;;3.90;;
8171;SDS011;4127;47.908;10.850;2023-06-05T12:18:41;5.30;;;3.85;;
8171;SDS011;4127;47.908;10.850;2023-06-05T12:21:43;4.95;;;4.55;;
8171;SDS011;4127;47.908;10.850;2023-06-05T12:24:03;4.70;;;4.28;;
8171;SDS011;4127;47.908;10.850;2023-06-05T12:26:47;4.82;;;4.13;;
8171;SDS011;4127;47.908;10.850;2023-06-05T12:29:14;5.25;;;4.45;;
8171;SDS011;4127;47.908;10.850;2023-06-05T12:31:42;5.93;;;4.45;;
8171;SDS011;4127;47.908;10.850;2023-06-05T12:34:10;4.88;;;4.40;;
8171;SDS011;4127;47.908;10.850;2023-06-05T12:36:40;4.93;;;4.53;;
8171;SDS011;4127;47.908;10.850;2023-06-05T12:39:12;4.55;;;4.15;;
8171;SDS011;4127;47.908;10.850;2023-06-05T12:41:40;4.33;;;3.93;;
8171;SDS011;4127;47.908;10.850;2023-06-05T12:44:07;4.82;;;4.03;;
8171;SDS011;4127;47.908;10.850;2023-06-05T12:46:34;5.33;;;4.83;;
8171;SDS011;4127;47.908;10.850;2023-06-05T12:49:03;4.95;;;4.18;;
8171;SDS011;4127;47.908;10.850;2023-06-05T12:51:31;7.22;;;4.15;;
8171;SDS011;4127;47.908;10.850;2023-06-05T12:53:59;4.82;;;4.30;;
8171;SDS011;4127;47.908;10.850;2023-06-05T12:56:26;6.40;;;4.63;;
8171;SDS011;4127;47.908;10.850;2023-06-05T12:58:56;5.25;;;4.70;;
8171;SDS011;4127;47.908;10.850;2023-06-05T13:01:24;4.25;;;3.85;;
8171;SDS011;4127;47.908;10.850;2023-06-05T13:03:51;5.55;;;4.35;;
8171;SDS011;4127;47.908;10.850;2023-06-05T13:06:19;8.73;;;4.88;;
8171;SDS011;4127;47.908;10.850;2023-06-05T13:08:46;6.32;;;4.63;;
8171;SDS011;4127;47.908;10.850;2023-06-05T13:11:13;5.10;;;4.45;;
8171;SDS011;4127;47.908;10.850;2023-06-05T13:13:41;6.85;;;4.45;;
8171;SDS011;4127;47.908;10.850;2023-06-05T13:16:09;5.00;;;4.43;;
8171;SDS011;4127;47.908;10.850;2023-06-05T13:18:37;7.82;;;4.55;;
8171;SDS011;4127;47.908;10.850;2023-06-05T13:21:04;4.72;;;3.97;;
8171;SDS011;4127;47.908;10.850;2023-06-05T13:23:31;5.28;;;4.03;;
8171;SDS011;4127;47.908;10.850;2023-06-05T13:25:59;5.93;;;3.88;;
8171;SDS011;4127;47.908;10.850;2023-06-05T13:28:27;4.03;;;3.65;;
8171;SDS011;4127;47.908;10.850;2023-06-05T13:30:54;6.50;;;4.18;;
8171;SDS011;4127;47.908;10.850;2023-06-05T13:33:22;6.10;;;4.68;;
8171;SDS011;4127;47.908;10.850;2023-06-05T13:35:51;4.82;;;4.38;;
8171;SDS011;4127;47.908;10.850;2023-06-05T13:38:20;5.90;;;4.65;;
8171;SDS011;4127;47.908;10.850;2023-06-05T13:40:48;6.75;;;5.20;;
8171;SDS011;4127;47.908;10.850;2023-06-05T13:43:16;4.95;;;4.45;;
8171;SDS011;4127;47.908;10.850;2023-06-05T13:45:44;5.10;;;4.35;;
8171;SDS011;4127;47.908;10.850;2023-06-05T13:48:11;5.28;;;4.03;;
8171;SDS011;4127;47.908;10.850;2023-06-05T13:50:38;4.80;;;4.30;;
8171;SDS011;4127;47.908;10.850;2023-06-05T13:53:05;5.05;;;4.20;;
8171;SDS011;4127;47.908;10.850;2023-06-05T13:55:32;4.68;;;4.28;;
8171;SDS011;4127;47.908;10.850;2023-06-05T13:57:58;4.80;;;4.10;;
8171;SDS011;4127;47.908;10.850;2023-06-05T14:00:30;4.38;;;3.97;;
8171;SDS011;4127;47.908;10.850;2023-06-05T14:02:57;4.57;;;4.18;;
8171;SDS011;4127;47.908;10.850;2023-06-05T14:05:24;4.55;;;4.15;;
8171;SDS011;4127;47.908;10.850;2023-06-05T14:07:52;6.97;;;4.60;;
8171;SDS011;4127;47.908;10.850;2023-06-05T14:10:20;5.00;;;4.50;;
8171;SDS011;4127;47.908;10.850;2023-06-05T14:12:49;4.78;;;4.05;;
8171;SDS011;4127;47.908;10.850;2023-06-05T14:15:17;5.22;;;4.35;;
8171;SDS011;4127;47.908;10.850;2023-06-05T14:17:45;4.93;;;4.13;;
8171;SDS011;4127;47.908;10.850;2023-06-05T14:20:12;4.93;;;4.47;;
8171;SDS011;4127;47.908;10.850;2023-06-05T14:22:39;4.68;;;4.15;;
8171;SDS011;4127;47.908;10.850;2023-06-05T14:25:07;4.55;;;4.15;;
8171;SDS011;4127;47.908;10.850;2023-06-05T14:27:36;5.00;;;4.50;;
8171;SDS011;4127;47.908;10.850;2023-06-05T14:30:03;5.50;;;5.03;;
8171;SDS011;4127;47.908;10.850;2023-06-05T14:32:31;5.50;;;5.00;;
8171;SDS011;4127;47.908;10.850;2023-06-05T14:34:58;5.63;;;4.82;;
8171;SDS011;4127;47.908;10.850;2023-06-05T14:37:24;5.47;;;4.93;;
8171;SDS011;4127;47.908;10.850;2023-06-05T14:39:51;6.75;;;4.60;;
8171;SDS011;4127;47.908;10.850;2023-06-05T14:42:18;5.78;;;4.70;;
8171;SDS011;4127;47.908;10.850;2023-06-05T14:44:45;6.00;;;5.32;;
8171;SDS011;4127;47.908;10.850;2023-06-05T14:47:12;5.82;;;4.70;;
8171;SDS011;4127;47.908;10.850;2023-06-05T14:49:39;5.47;;;4.97;;
8171;SDS011;4127;47.908;10.850;2023-06-05T14:52:05;6.35;;;5.10;;
8171;SDS011;4127;47.908;10.850;2023-06-05T14:54:32;5.50;;;5.00;;
8171;SDS011;4127;47.908;10.850;2023-06-05T14:56:59;5.35;;;4.85;;
8171;SDS011;4127;47.908;10.850;2023-06-05T14:59:26;6.67;;;5.37;;
8171;SDS011;4127;47.908;10.850;2023-06-05T15:01:53;7.50;;;5.50;;
8171;SDS011;4127;47.908;10.850;2023-06-05T15:04:20;9.70;;;6.90;;
8171;SDS011;4127;47.908;10.850;2023-06-05T15:06:47;9.50;;;5.90;;
8171;SDS011;4127;47.908;10.850;2023-06-05T15:09:17;7.53;;;5.77;;
8171;SDS011;4127;47.908;10.850;2023-06-05T15:11:44;7.93;;;6.93;;
8171;SDS011;4127;47.908;10.850;2023-06-05T15:14:11;6.53;;;5.43;;
8171;SDS011;4127;47.908;10.850;2023-06-05T15:16:38;6.80;;;5.17;;
8171;SDS011;4127;47.908;10.850;2023-06-05T15:19:08;7.37;;;6.20;;
8171;SDS011;4127;47.908;10.850;2023-06-05T15:21:35;6.80;;;6.10;;
8171;SDS011;4127;47.908;10.850;2023-06-05T15:24:05;6.63;;;6.03;;
8171;SDS011;4127;47.908;10.850;2023-06-05T15:26:33;7.20;;;6.07;;
8171;SDS011;4127;47.908;10.850;2023-06-05T15:29:00;7.50;;;6.73;;
8171;SDS011;4127;47.908;10.850;2023-06-05T15:31:27;7.00;;;6.30;;
8171;SDS011;4127;47.908;10.850;2023-06-05T15:33:54;8.60;;;7.27;;
8171;SDS011;4127;47.908;10.850;2023-06-05T15:36:20;7.23;;;6.53;;
8171;SDS011;4127;47.908;10.850;2023-06-05T15:38:47;7.90;;;7.10;;
8171;SDS011;4127;47.908;10.850;2023-06-05T15:41:14;7.27;;;6.57;;
8171;SDS011;4127;47.908;10.850;2023-06-05T15:43:42;6.93;;;6.23;;
8171;SDS011;4127;47.908;10.850;2023-06-05T15:46:08;7.00;;;6.27;;
8171;SDS011;4127;47.908;10.850;2023-06-05T15:48:35;8.10;;;7.37;;
8171;SDS011;4127;47.908;10.850;2023-06-05T15:51:03;8.43;;;7.63;;
8171;SDS011;4127;47.908;10.850;2023-06-05T15:53:30;7.20;;;6.60;;
8171;SDS011;4127;47.908;10.850;2023-06-05T15:56:08;7.83;;;7.03;;
8171;SDS011;4127;47.908;10.850;2023-06-05T15:58:35;7.77;;;7.07;;
8171;SDS011;4127;47.908;10.850;2023-06-05T16:01:02;7.27;;;6.57;;
8171;SDS011;4127;47.908;10.850;2023-06-05T16:03:29;6.57;;;5.97;;
8171;SDS011;4127;47.908;10.850;2023-06-05T16:05:56;7.40;;;6.80;;
8171;SDS011;4127;47.908;10.850;2023-06-05T16:08:23;7.77;;;7.07;;
8171;SDS011;4127;47.908;10.850;2023-06-05T16:10:49;8.80;;;7.80;;
8171;SDS011;4127;47.908;10.850;2023-06-05T16:13:16;4.67;;;4.23;;
8171;SDS011;4127;47.908;10.850;2023-06-05T16:15:44;4.27;;;3.60;;
8171;SDS011;4127;47.908;10.850;2023-06-05T16:18:11;3.70;;;3.40;;
8171;SDS011;4127;47.908;10.850;2023-06-05T16:20:38;3.87;;;3.50;;
8171;SDS011;4127;47.908;10.850;2023-06-05T16:23:05;3.13;;;2.90;;
8171;SDS011;4127;47.908;10.850;2023-06-05T16:25:32;3.17;;;2.87;;
8171;SDS011;4127;47.908;10.850;2023-06-05T16:27:59;4.73;;;3.20;;
8171;SDS011;4127;47.908;10.850;2023-06-05T16:30:25;5.07;;;3.10;;
8171;SDS011;4127;47.908;10.850;2023-06-05T16:32:52;4.30;;;3.10;;
8171;SDS011;4127;47.908;10.850;2023-06-05T16:35:19;3.43;;;3.13;;
8171;SDS011;4127;47.908;10.850;2023-06-05T16:37:46;3.73;;;3.43;;
8171;SDS011;4127;47.908;10.850;2023-06-05T16:40:13;3.33;;;2.93;;
8171;SDS011;4127;47.908;10.850;2023-06-05T16:42:40;3.27;;;2.93;;
8171;SDS011;4127;47.908;10.850;2023-06-05T16:45:07;4.40;;;4.00;;
8171;SDS011;4127;47.908;10.850;2023-06-05T16:47:34;3.97;;;3.50;;
8171;SDS011;4127;47.908;10.850;2023-06-05T16:50:02;4.33;;;3.93;;
8171;SDS011;4127;47.908;10.850;2023-06-05T16:52:28;3.83;;;3.50;;
8171;SDS011;4127;47.908;10.850;2023-06-05T16:54:55;4.00;;;3.30;;
8171;SDS011;4127;47.908;10.850;2023-06-05T16:57:22;3.73;;;3.23;;
8171;SDS011;4127;47.908;10.850;2023-06-05T16:59:49;3.90;;;3.50;;
8171;SDS011;4127;47.908;10.850;2023-06-05T17:02:16;3.93;;;3.40;;
8171;SDS011;4127;47.908;10.850;2023-06-05T17:04:43;4.17;;;3.70;;
8171;SDS011;4127;47.908;10.850;2023-06-05T17:07:11;4.27;;;3.70;;
8171;SDS011;4127;47.908;10.850;2023-06-05T17:09:38;3.80;;;3.50;;
8171;SDS011;4127;47.908;10.850;2023-06-05T17:12:05;3.30;;;3.00;;
8171;SDS011;4127;47.908;10.850;2023-06-05T17:14:32;3.43;;;3.20;;
8171;SDS011;4127;47.908;10.850;2023-06-05T17:16:59;3.13;;;2.83;;
8171;SDS011;4127;47.908;10.850;2023-06-05T17:19:26;3.53;;;3.23;;
8171;SDS011;4127;47.908;10.850;2023-06-05T17:21:53;4.70;;;4.30;;
8171;SDS011;4127;47.908;10.850;2023-06-05T17:24:20;4.17;;;3.77;;
8171;SDS011;4127;47.908;10.850;2023-06-05T17:26:48;4.40;;;3.60;;
8171;SDS011;4127;47.908;10.850;2023-06-05T17:29:15;3.83;;;3.53;;
8171;SDS011;4127;47.908;10.850;2023-06-05T17:31:42;3.83;;;3.53;;
8171;SDS011;4127;47.908;10.850;2023-06-05T17:34:09;3.67;;;3.37;;
8171;SDS011;4127;47.908;10.850;2023-06-05T17:36:36;3.90;;;3.60;;
8171;SDS011;4127;47.908;10.850;2023-06-05T17:39:03;4.87;;;4.37;;
8171;SDS011;4127;47.908;10.850;2023-06-05T17:41:30;3.90;;;3.60;;
8171;SDS011;4127;47.908;10.850;2023-06-05T17:43:56;4.57;;;4.17;;
8171;SDS011;4127;47.908;10.850;2023-06-05T17:46:23;3.70;;;3.40;;
8171;SDS011;4127;47.908;10.850;2023-06-05T17:48:50;3.60;;;3.30;;
8171;SDS011;4127;47.908;10.850;2023-06-05T17:51:17;4.33;;;3.77;;
8171;SDS011;4127;47.908;10.850;2023-06-05T17:53:44;3.90;;;3.60;;
8171;SDS011;4127;47.908;10.850;2023-06-05T17:56:12;4.73;;;3.70;;
8171;SDS011;4127;47.908;10.850;2023-06-05T17:58:38;3.90;;;3.60;;
8171;SDS011;4127;47.908;10.850;2023-06-05T18:01:06;3.80;;;3.50;;
8171;SDS011;4127;47.908;10.850;2023-06-05T18:03:38;4.30;;;3.90;;
8171;SDS011;4127;47.908;10.850;2023-06-05T18:06:05;6.50;;;5.93;;
8171;SDS011;4127;47.908;10.850;2023-06-05T18:08:31;5.53;;;5.03;;
8171;SDS011;4127;47.908;10.850;2023-06-05T18:10:59;4.87;;;4.47;;